24h
CUSTOMER SERVICE:
Saartelennuliinid: +372 58856336 (24/7)
Airport ticket info +372 6058887; +372 55603687

18.12.2018 õhtune Transaviabaltika lend KTB676 Tallinn - Kärdla ja KTB677 Kärdla – Tallinn väljalend jääb ära. Lennu ära jäämise põhjustab madalad pilved Kärdla lennuvälja kohal. Reisijatele võimaldatakse tasuta lennupileti ümber broneerimine reisija soovi kohasele mõnele teisele Tallinn-Kärdla või Kärdla-Tallinn lennule. Reisijatele kes ei soovi lennupileti ümberbroneerimist teisele lennule tagastatakse piletiraha. Oma soovist tuleb teada anda e-mailile [email protected] Lisainformatsioon telefonil 58856336

EEKA Kärdla lennuväli FCEO32 EETN 181300

TAF EEKA 181300Z 1814/1820 17008KT 8000 SCT006 OVC010

TEMPO 1814/1820 1500 +SHSN BR BKN003 SCT012CB=

SPECI EEKA 181413Z 18004KT 1200 SN BKN003 OVC007 00/00 Q1026=
Date: 
18/12/2018